sensor_id;sensor_type;location;lat;lon;timestamp;temperature;humidity
4406;DHT22;2216;53.806;11.598;2022-07-23T00:00:12;16.90;51.80
4406;DHT22;2216;53.806;11.598;2022-07-23T00:02:38;16.90;51.80
4406;DHT22;2216;53.806;11.598;2022-07-23T00:05:04;16.90;51.80
4406;DHT22;2216;53.806;11.598;2022-07-23T00:07:30;16.90;51.80
4406;DHT22;2216;53.806;11.598;2022-07-23T00:09:55;16.90;51.80
4406;DHT22;2216;53.806;11.598;2022-07-23T00:12:21;16.90;51.80
4406;DHT22;2216;53.806;11.598;2022-07-23T00:14:47;16.90;51.70
4406;DHT22;2216;53.806;11.598;2022-07-23T00:17:13;16.90;51.70
4406;DHT22;2216;53.806;11.598;2022-07-23T00:19:38;16.90;51.80
4406;DHT22;2216;53.806;11.598;2022-07-23T00:22:04;16.90;51.80
4406;DHT22;2216;53.806;11.598;2022-07-23T00:24:30;16.90;51.80
4406;DHT22;2216;53.806;11.598;2022-07-23T00:26:56;16.90;51.90
4406;DHT22;2216;53.806;11.598;2022-07-23T00:29:21;16.90;51.80
4406;DHT22;2216;53.806;11.598;2022-07-23T00:31:47;16.90;51.80
4406;DHT22;2216;53.806;11.598;2022-07-23T00:34:13;16.90;51.80
4406;DHT22;2216;53.806;11.598;2022-07-23T00:36:38;16.90;51.90
4406;DHT22;2216;53.806;11.598;2022-07-23T00:39:04;16.90;51.80
4406;DHT22;2216;53.806;11.598;2022-07-23T00:41:30;16.90;51.90
4406;DHT22;2216;53.806;11.598;2022-07-23T00:44:13;16.80;51.90
4406;DHT22;2216;53.806;11.598;2022-07-23T00:46:52;16.80;51.90
4406;DHT22;2216;53.806;11.598;2022-07-23T00:49:27;16.80;51.90
4406;DHT22;2216;53.806;11.598;2022-07-23T00:51:54;16.80;51.90
4406;DHT22;2216;53.806;11.598;2022-07-23T00:54:23;16.80;51.90
4406;DHT22;2216;53.806;11.598;2022-07-23T00:56:50;16.70;51.90
4406;DHT22;2216;53.806;11.598;2022-07-23T00:59:16;16.80;52.00
4406;DHT22;2216;53.806;11.598;2022-07-23T01:01:41;16.70;51.90
4406;DHT22;2216;53.806;11.598;2022-07-23T01:04:09;16.70;52.00
4406;DHT22;2216;53.806;11.598;2022-07-23T01:06:37;16.70;52.00
4406;DHT22;2216;53.806;11.598;2022-07-23T01:09:05;16.70;52.00
4406;DHT22;2216;53.806;11.598;2022-07-23T01:11:35;16.70;52.00
4406;DHT22;2216;53.806;11.598;2022-07-23T01:14:14;16.70;52.00
4406;DHT22;2216;53.806;11.598;2022-07-23T01:16:43;16.60;51.90
4406;DHT22;2216;53.806;11.598;2022-07-23T01:19:10;16.60;51.90
4406;DHT22;2216;53.806;11.598;2022-07-23T01:21:41;16.60;52.00
4406;DHT22;2216;53.806;11.598;2022-07-23T01:24:11;16.60;52.00
4406;DHT22;2216;53.806;11.598;2022-07-23T01:26:41;16.60;52.00
4406;DHT22;2216;53.806;11.598;2022-07-23T01:29:08;16.60;52.00
4406;DHT22;2216;53.806;11.598;2022-07-23T01:31:33;16.60;52.00
4406;DHT22;2216;53.806;11.598;2022-07-23T01:33:59;16.60;52.00
4406;DHT22;2216;53.806;11.598;2022-07-23T01:36:25;16.50;52.00
4406;DHT22;2216;53.806;11.598;2022-07-23T01:38:51;16.50;52.00
4406;DHT22;2216;53.806;11.598;2022-07-23T01:41:17;16.50;52.10
4406;DHT22;2216;53.806;11.598;2022-07-23T01:43:43;16.50;52.10
4406;DHT22;2216;53.806;11.598;2022-07-23T01:46:09;16.50;52.10
4406;DHT22;2216;53.806;11.598;2022-07-23T01:48:35;16.50;52.10
4406;DHT22;2216;53.806;11.598;2022-07-23T01:51:00;16.50;52.10
4406;DHT22;2216;53.806;11.598;2022-07-23T01:53:26;16.40;52.10
4406;DHT22;2216;53.806;11.598;2022-07-23T01:55:52;16.40;52.10
4406;DHT22;2216;53.806;11.598;2022-07-23T01:58:17;16.40;52.10
4406;DHT22;2216;53.806;11.598;2022-07-23T02:00:43;16.40;52.10
4406;DHT22;2216;53.806;11.598;2022-07-23T02:03:09;16.40;52.10
4406;DHT22;2216;53.806;11.598;2022-07-23T02:05:34;16.40;52.10
4406;DHT22;2216;53.806;11.598;2022-07-23T02:08:00;16.30;52.10
4406;DHT22;2216;53.806;11.598;2022-07-23T02:10:26;16.30;52.10
4406;DHT22;2216;53.806;11.598;2022-07-23T02:12:53;16.30;52.20
4406;DHT22;2216;53.806;11.598;2022-07-23T02:15:19;16.30;52.10
4406;DHT22;2216;53.806;11.598;2022-07-23T02:17:45;16.30;52.20
4406;DHT22;2216;53.806;11.598;2022-07-23T02:20:11;16.20;52.10
4406;DHT22;2216;53.806;11.598;2022-07-23T02:22:37;16.20;52.20
4406;DHT22;2216;53.806;11.598;2022-07-23T02:25:04;16.20;52.20
4406;DHT22;2216;53.806;11.598;2022-07-23T02:27:31;16.20;52.80
4406;DHT22;2216;53.806;11.598;2022-07-23T02:29:56;16.20;52.20
4406;DHT22;2216;53.806;11.598;2022-07-23T02:32:23;16.20;52.20
4406;DHT22;2216;53.806;11.598;2022-07-23T02:34:49;16.20;52.20
4406;DHT22;2216;53.806;11.598;2022-07-23T02:37:15;16.20;52.30
4406;DHT22;2216;53.806;11.598;2022-07-23T02:39:41;16.20;52.30
4406;DHT22;2216;53.806;11.598;2022-07-23T02:42:07;16.20;52.40
4406;DHT22;2216;53.806;11.598;2022-07-23T02:44:33;16.20;52.30
4406;DHT22;2216;53.806;11.598;2022-07-23T02:46:59;16.20;52.40
4406;DHT22;2216;53.806;11.598;2022-07-23T02:49:24;16.20;52.30
4406;DHT22;2216;53.806;11.598;2022-07-23T02:51:50;16.20;52.40
4406;DHT22;2216;53.806;11.598;2022-07-23T02:54:16;16.20;52.40
4406;DHT22;2216;53.806;11.598;2022-07-23T02:56:42;16.20;52.40
4406;DHT22;2216;53.806;11.598;2022-07-23T02:59:07;16.10;52.40
4406;DHT22;2216;53.806;11.598;2022-07-23T03:01:33;16.10;52.40
4406;DHT22;2216;53.806;11.598;2022-07-23T03:03:59;16.10;52.40
4406;DHT22;2216;53.806;11.598;2022-07-23T03:06:25;16.10;52.30
4406;DHT22;2216;53.806;11.598;2022-07-23T03:08:51;16.10;52.40
4406;DHT22;2216;53.806;11.598;2022-07-23T03:11:16;16.00;52.30
4406;DHT22;2216;53.806;11.598;2022-07-23T03:13:42;16.00;52.40
4406;DHT22;2216;53.806;11.598;2022-07-23T03:16:08;16.00;52.40
4406;DHT22;2216;53.806;11.598;2022-07-23T03:18:34;16.00;52.30
4406;DHT22;2216;53.806;11.598;2022-07-23T03:21:00;16.00;52.30
4406;DHT22;2216;53.806;11.598;2022-07-23T03:23:26;15.90;52.30
4406;DHT22;2216;53.806;11.598;2022-07-23T03:25:51;15.90;52.30
4406;DHT22;2216;53.806;11.598;2022-07-23T03:28:18;15.90;52.30
4406;DHT22;2216;53.806;11.598;2022-07-23T03:30:45;15.80;52.80
4406;DHT22;2216;53.806;11.598;2022-07-23T03:33:12;15.80;52.90
4406;DHT22;2216;53.806;11.598;2022-07-23T03:35:39;15.80;52.30
4406;DHT22;2216;53.806;11.598;2022-07-23T03:38:05;15.80;52.40
4406;DHT22;2216;53.806;11.598;2022-07-23T03:40:31;15.80;52.40
4406;DHT22;2216;53.806;11.598;2022-07-23T03:42:56;15.70;52.40
4406;DHT22;2216;53.806;11.598;2022-07-23T03:45:22;15.70;52.40
4406;DHT22;2216;53.806;11.598;2022-07-23T03:47:48;15.70;52.50
4406;DHT22;2216;53.806;11.598;2022-07-23T03:50:14;15.70;52.50
4406;DHT22;2216;53.806;11.598;2022-07-23T03:52:39;15.70;52.50
4406;DHT22;2216;53.806;11.598;2022-07-23T03:55:06;15.70;52.60
4406;DHT22;2216;53.806;11.598;2022-07-23T03:57:32;15.70;53.20
4406;DHT22;2216;53.806;11.598;2022-07-23T03:59:58;15.70;52.70
4406;DHT22;2216;53.806;11.598;2022-07-23T04:02:24;15.80;52.80
4406;DHT22;2216;53.806;11.598;2022-07-23T04:04:49;15.80;52.80
4406;DHT22;2216;53.806;11.598;2022-07-23T04:07:15;15.70;52.80
4406;DHT22;2216;53.806;11.598;2022-07-23T04:09:43;15.80;52.90
4406;DHT22;2216;53.806;11.598;2022-07-23T04:12:09;15.90;53.00
4406;DHT22;2216;53.806;11.598;2022-07-23T04:14:35;16.00;53.20
4406;DHT22;2216;53.806;11.598;2022-07-23T04:17:01;16.00;53.30
4406;DHT22;2216;53.806;11.598;2022-07-23T04:19:27;16.10;53.30
4406;DHT22;2216;53.806;11.598;2022-07-23T04:21:53;16.20;53.30
4406;DHT22;2216;53.806;11.598;2022-07-23T04:24:18;16.30;53.40
4406;DHT22;2216;53.806;11.598;2022-07-23T04:26:45;16.40;53.40
4406;DHT22;2216;53.806;11.598;2022-07-23T04:29:11;16.40;53.40
4406;DHT22;2216;53.806;11.598;2022-07-23T04:31:36;16.50;53.40
4406;DHT22;2216;53.806;11.598;2022-07-23T04:34:02;16.60;53.40
4406;DHT22;2216;53.806;11.598;2022-07-23T04:36:28;16.70;53.50
4406;DHT22;2216;53.806;11.598;2022-07-23T04:38:54;16.80;53.50
4406;DHT22;2216;53.806;11.598;2022-07-23T04:41:20;16.90;53.60
4406;DHT22;2216;53.806;11.598;2022-07-23T04:43:46;17.00;53.70
4406;DHT22;2216;53.806;11.598;2022-07-23T04:46:12;17.20;53.60
4406;DHT22;2216;53.806;11.598;2022-07-23T04:48:39;17.20;53.50
4406;DHT22;2216;53.806;11.598;2022-07-23T04:51:04;17.30;53.40
4406;DHT22;2216;53.806;11.598;2022-07-23T04:53:30;17.30;53.30
4406;DHT22;2216;53.806;11.598;2022-07-23T04:55:56;17.40;53.20
4406;DHT22;2216;53.806;11.598;2022-07-23T04:58:22;17.40;53.10
4406;DHT22;2216;53.806;11.598;2022-07-23T05:00:48;17.40;53.00
4406;DHT22;2216;53.806;11.598;2022-07-23T05:03:14;17.40;53.00
4406;DHT22;2216;53.806;11.598;2022-07-23T05:05:39;17.40;52.90
4406;DHT22;2216;53.806;11.598;2022-07-23T05:08:05;17.40;53.00
4406;DHT22;2216;53.806;11.598;2022-07-23T05:10:31;17.40;52.90
4406;DHT22;2216;53.806;11.598;2022-07-23T05:12:57;17.40;52.80
4406;DHT22;2216;53.806;11.598;2022-07-23T05:15:23;17.50;53.00
4406;DHT22;2216;53.806;11.598;2022-07-23T05:17:48;17.50;52.90
4406;DHT22;2216;53.806;11.598;2022-07-23T05:20:14;17.50;52.90
4406;DHT22;2216;53.806;11.598;2022-07-23T05:22:40;17.50;52.90
4406;DHT22;2216;53.806;11.598;2022-07-23T05:25:06;17.60;52.90
4406;DHT22;2216;53.806;11.598;2022-07-23T05:27:32;17.50;53.00
4406;DHT22;2216;53.806;11.598;2022-07-23T05:29:58;17.60;53.00
4406;DHT22;2216;53.806;11.598;2022-07-23T05:32:24;17.60;53.00
4406;DHT22;2216;53.806;11.598;2022-07-23T05:34:50;17.70;53.10
4406;DHT22;2216;53.806;11.598;2022-07-23T05:37:16;17.70;53.20
4406;DHT22;2216;53.806;11.598;2022-07-23T05:39:42;17.80;53.10
4406;DHT22;2216;53.806;11.598;2022-07-23T05:42:07;17.80;53.10
4406;DHT22;2216;53.806;11.598;2022-07-23T05:44:34;17.90;53.00
4406;DHT22;2216;53.806;11.598;2022-07-23T05:46:59;17.90;53.00
4406;DHT22;2216;53.806;11.598;2022-07-23T05:49:25;18.00;53.00
4406;DHT22;2216;53.806;11.598;2022-07-23T05:51:51;18.00;52.90
4406;DHT22;2216;53.806;11.598;2022-07-23T05:54:17;17.70;52.80
4406;DHT22;2216;53.806;11.598;2022-07-23T05:56:42;18.00;52.90
4406;DHT22;2216;53.806;11.598;2022-07-23T05:59:08;18.10;52.90
4406;DHT22;2216;53.806;11.598;2022-07-23T06:01:34;18.10;53.00
4406;DHT22;2216;53.806;11.598;2022-07-23T06:04:00;18.10;53.00
4406;DHT22;2216;53.806;11.598;2022-07-23T06:06:25;18.10;52.80
4406;DHT22;2216;53.806;11.598;2022-07-23T06:08:51;18.10;52.90
4406;DHT22;2216;53.806;11.598;2022-07-23T06:11:17;18.00;52.80
4406;DHT22;2216;53.806;11.598;2022-07-23T06:13:42;18.10;52.80
4406;DHT22;2216;53.806;11.598;2022-07-23T06:16:08;18.10;52.80
4406;DHT22;2216;53.806;11.598;2022-07-23T06:18:34;18.10;52.80
4406;DHT22;2216;53.806;11.598;2022-07-23T06:20:59;18.10;52.80
4406;DHT22;2216;53.806;11.598;2022-07-23T06:23:25;18.10;52.90
4406;DHT22;2216;53.806;11.598;2022-07-23T06:25:51;18.10;52.90
4406;DHT22;2216;53.806;11.598;2022-07-23T06:28:17;18.10;52.90
4406;DHT22;2216;53.806;11.598;2022-07-23T06:30:43;18.10;52.90
4406;DHT22;2216;53.806;11.598;2022-07-23T06:33:08;18.10;52.90
4406;DHT22;2216;53.806;11.598;2022-07-23T06:35:35;18.10;52.80
4406;DHT22;2216;53.806;11.598;2022-07-23T06:38:00;18.20;52.80
4406;DHT22;2216;53.806;11.598;2022-07-23T06:40:26;18.10;52.80
4406;DHT22;2216;53.806;11.598;2022-07-23T06:42:52;18.20;53.00
4406;DHT22;2216;53.806;11.598;2022-07-23T06:45:17;18.10;53.00
4406;DHT22;2216;53.806;11.598;2022-07-23T06:47:43;18.10;53.00
4406;DHT22;2216;53.806;11.598;2022-07-23T06:50:09;18.20;53.10
4406;DHT22;2216;53.806;11.598;2022-07-23T06:52:35;18.10;53.00
4406;DHT22;2216;53.806;11.598;2022-07-23T06:55:00;18.20;53.20
4406;DHT22;2216;53.806;11.598;2022-07-23T06:57:26;18.30;53.40
4406;DHT22;2216;53.806;11.598;2022-07-23T06:59:52;18.30;53.20
4406;DHT22;2216;53.806;11.598;2022-07-23T07:02:18;18.40;53.30
4406;DHT22;2216;53.806;11.598;2022-07-23T07:04:44;18.40;53.30
4406;DHT22;2216;53.806;11.598;2022-07-23T07:07:10;18.60;53.50
4406;DHT22;2216;53.806;11.598;2022-07-23T07:09:37;18.60;53.70
4406;DHT22;2216;53.806;11.598;2022-07-23T07:12:03;18.90;53.50
4406;DHT22;2216;53.806;11.598;2022-07-23T07:14:30;18.70;53.50
4406;DHT22;2216;53.806;11.598;2022-07-23T07:16:55;18.80;53.30
4406;DHT22;2216;53.806;11.598;2022-07-23T07:19:21;18.60;53.70
4406;DHT22;2216;53.806;11.598;2022-07-23T07:21:47;18.90;53.20
4406;DHT22;2216;53.806;11.598;2022-07-23T07:24:13;18.90;53.10
4406;DHT22;2216;53.806;11.598;2022-07-23T07:26:38;18.90;53.00
4406;DHT22;2216;53.806;11.598;2022-07-23T07:29:05;19.00;53.30
4406;DHT22;2216;53.806;11.598;2022-07-23T07:31:31;19.00;53.10
4406;DHT22;2216;53.806;11.598;2022-07-23T07:33:58;19.00;53.10
4406;DHT22;2216;53.806;11.598;2022-07-23T07:36:24;19.00;53.10
4406;DHT22;2216;53.806;11.598;2022-07-23T07:38:50;19.10;53.10
4406;DHT22;2216;53.806;11.598;2022-07-23T07:41:15;19.10;53.10
4406;DHT22;2216;53.806;11.598;2022-07-23T07:43:41;19.30;53.20
4406;DHT22;2216;53.806;11.598;2022-07-23T07:46:07;19.10;53.10
4406;DHT22;2216;53.806;11.598;2022-07-23T07:48:37;19.10;53.10
4406;DHT22;2216;53.806;11.598;2022-07-23T07:51:04;19.20;53.50
4406;DHT22;2216;53.806;11.598;2022-07-23T07:53:30;19.30;53.80
4406;DHT22;2216;53.806;11.598;2022-07-23T07:55:55;19.30;53.50
4406;DHT22;2216;53.806;11.598;2022-07-23T07:58:21;19.40;53.40
4406;DHT22;2216;53.806;11.598;2022-07-23T08:00:47;19.50;53.40
4406;DHT22;2216;53.806;11.598;2022-07-23T08:03:12;19.60;53.40
4406;DHT22;2216;53.806;11.598;2022-07-23T08:05:38;19.60;53.40
4406;DHT22;2216;53.806;11.598;2022-07-23T08:08:04;19.70;53.60
4406;DHT22;2216;53.806;11.598;2022-07-23T08:10:30;19.60;53.70
4406;DHT22;2216;53.806;11.598;2022-07-23T08:12:57;20.00;53.60
4406;DHT22;2216;53.806;11.598;2022-07-23T08:15:25;20.10;53.50
4406;DHT22;2216;53.806;11.598;2022-07-23T08:17:52;20.20;53.30
4406;DHT22;2216;53.806;11.598;2022-07-23T08:20:19;20.30;53.30
4406;DHT22;2216;53.806;11.598;2022-07-23T08:25:16;20.40;53.00
4406;DHT22;2216;53.806;11.598;2022-07-23T08:27:45;20.50;53.00
4406;DHT22;2216;53.806;11.598;2022-07-23T08:30:11;20.50;53.00
4406;DHT22;2216;53.806;11.598;2022-07-23T08:32:59;20.60;52.90
4406;DHT22;2216;53.806;11.598;2022-07-23T08:35:35;20.60;52.80
4406;DHT22;2216;53.806;11.598;2022-07-23T08:38:04;20.60;52.60
4406;DHT22;2216;53.806;11.598;2022-07-23T08:40:35;20.60;52.50
4406;DHT22;2216;53.806;11.598;2022-07-23T08:43:05;20.50;52.50
4406;DHT22;2216;53.806;11.598;2022-07-23T08:45:36;20.50;52.40
4406;DHT22;2216;53.806;11.598;2022-07-23T08:48:15;20.50;52.40
4406;DHT22;2216;53.806;11.598;2022-07-23T08:50:47;20.40;52.30
4406;DHT22;2216;53.806;11.598;2022-07-23T08:53:15;20.30;52.20
4406;DHT22;2216;53.806;11.598;2022-07-23T08:55:44;20.20;52.10
4406;DHT22;2216;53.806;11.598;2022-07-23T08:58:14;20.10;52.10
4406;DHT22;2216;53.806;11.598;2022-07-23T09:00:40;20.00;52.10
4406;DHT22;2216;53.806;11.598;2022-07-23T09:03:06;19.90;52.10
4406;DHT22;2216;53.806;11.598;2022-07-23T09:05:32;19.80;52.10
4406;DHT22;2216;53.806;11.598;2022-07-23T09:08:06;19.70;52.20
4406;DHT22;2216;53.806;11.598;2022-07-23T09:10:53;19.60;52.40
4406;DHT22;2216;53.806;11.598;2022-07-23T09:13:35;19.60;52.70
4406;DHT22;2216;53.806;11.598;2022-07-23T09:16:18;19.60;52.70
4406;DHT22;2216;53.806;11.598;2022-07-23T09:18:50;19.60;53.00
4406;DHT22;2216;53.806;11.598;2022-07-23T09:26:39;19.90;53.50
4406;DHT22;2216;53.806;11.598;2022-07-23T09:29:23;20.10;53.60
4406;DHT22;2216;53.806;11.598;2022-07-23T09:32:03;20.20;53.50
4406;DHT22;2216;53.806;11.598;2022-07-23T09:34:34;20.40;53.40
4406;DHT22;2216;53.806;11.598;2022-07-23T09:37:15;20.50;53.30
4406;DHT22;2216;53.806;11.598;2022-07-23T09:39:44;20.70;53.30
4406;DHT22;2216;53.806;11.598;2022-07-23T09:44:41;20.90;53.40
4406;DHT22;2216;53.806;11.598;2022-07-23T09:47:10;21.10;53.40
4406;DHT22;2216;53.806;11.598;2022-07-23T09:49:36;21.20;53.30
4406;DHT22;2216;53.806;11.598;2022-07-23T09:52:02;21.40;53.20
4406;DHT22;2216;53.806;11.598;2022-07-23T09:54:38;21.50;53.10
4406;DHT22;2216;53.806;11.598;2022-07-23T09:57:11;21.60;52.90
4406;DHT22;2216;53.806;11.598;2022-07-23T09:59:43;21.70;52.70
4406;DHT22;2216;53.806;11.598;2022-07-23T10:02:11;21.80;52.40
4406;DHT22;2216;53.806;11.598;2022-07-23T10:04:40;21.70;52.10
4406;DHT22;2216;53.806;11.598;2022-07-23T10:07:08;21.60;52.00
4406;DHT22;2216;53.806;11.598;2022-07-23T10:09:38;21.40;51.80
4406;DHT22;2216;53.806;11.598;2022-07-23T10:12:13;21.40;51.80
4406;DHT22;2216;53.806;11.598;2022-07-23T10:14:44;21.40;51.90
4406;DHT22;2216;53.806;11.598;2022-07-23T10:17:11;21.30;51.80
4406;DHT22;2216;53.806;11.598;2022-07-23T10:19:37;21.20;51.90
4406;DHT22;2216;53.806;11.598;2022-07-23T10:22:07;21.20;52.00
4406;DHT22;2216;53.806;11.598;2022-07-23T10:24:50;21.10;52.10
4406;DHT22;2216;53.806;11.598;2022-07-23T10:38:53;21.10;52.10
4406;DHT22;2216;53.806;11.598;2022-07-23T10:44:11;21.10;52.00
4406;DHT22;2216;53.806;11.598;2022-07-23T10:46:58;21.00;52.00
4406;DHT22;2216;53.806;11.598;2022-07-23T10:49:40;21.00;52.20
4406;DHT22;2216;53.806;11.598;2022-07-23T10:54:41;21.00;52.30
4406;DHT22;2216;53.806;11.598;2022-07-23T10:57:09;21.10;52.30
4406;DHT22;2216;53.806;11.598;2022-07-23T11:02:32;21.10;52.10
4406;DHT22;2216;53.806;11.598;2022-07-23T11:05:10;21.00;51.90
4406;DHT22;2216;53.806;11.598;2022-07-23T11:10:57;20.90;51.90
4406;DHT22;2216;53.806;11.598;2022-07-23T11:13:39;20.80;51.90
4406;DHT22;2216;53.806;11.598;2022-07-23T11:16:18;20.70;52.20
4406;DHT22;2216;53.806;11.598;2022-07-23T11:26:52;20.60;52.30
4406;DHT22;2216;53.806;11.598;2022-07-23T11:31:59;20.70;52.50
4406;DHT22;2216;53.806;11.598;2022-07-23T11:37:06;20.90;52.70
4406;DHT22;2216;53.806;11.598;2022-07-23T11:39:34;21.00;52.60
4406;DHT22;2216;53.806;11.598;2022-07-23T11:42:02;21.10;52.50
4406;DHT22;2216;53.806;11.598;2022-07-23T11:44:38;21.20;52.50
4406;DHT22;2216;53.806;11.598;2022-07-23T11:47:07;21.30;52.40
4406;DHT22;2216;53.806;11.598;2022-07-23T11:49:34;21.40;52.40
4406;DHT22;2216;53.806;11.598;2022-07-23T11:52:12;21.40;52.20
4406;DHT22;2216;53.806;11.598;2022-07-23T11:54:53;21.50;52.10
4406;DHT22;2216;53.806;11.598;2022-07-23T11:57:25;21.50;52.00
4406;DHT22;2216;53.806;11.598;2022-07-23T12:00:09;21.50;52.10
4406;DHT22;2216;53.806;11.598;2022-07-23T12:02:38;21.50;52.20
4406;DHT22;2216;53.806;11.598;2022-07-23T12:05:24;21.60;52.20
4406;DHT22;2216;53.806;11.598;2022-07-23T12:07:52;21.60;52.10
4406;DHT22;2216;53.806;11.598;2022-07-23T12:10:25;21.70;52.10
4406;DHT22;2216;53.806;11.598;2022-07-23T12:12:58;21.70;51.90
4406;DHT22;2216;53.806;11.598;2022-07-23T12:15:34;21.60;51.80
4406;DHT22;2216;53.806;11.598;2022-07-23T12:18:04;21.70;51.70
4406;DHT22;2216;53.806;11.598;2022-07-23T12:20:40;21.60;51.60
4406;DHT22;2216;53.806;11.598;2022-07-23T12:23:10;21.50;51.60
4406;DHT22;2216;53.806;11.598;2022-07-23T12:25:39;21.50;51.70
4406;DHT22;2216;53.806;11.598;2022-07-23T12:28:15;21.50;51.80
4406;DHT22;2216;53.806;11.598;2022-07-23T12:30:53;21.50;51.80
4406;DHT22;2216;53.806;11.598;2022-07-23T12:33:25;21.50;51.80
4406;DHT22;2216;53.806;11.598;2022-07-23T12:35:58;21.50;51.60
4406;DHT22;2216;53.806;11.598;2022-07-23T12:38:40;21.40;51.60
4406;DHT22;2216;53.806;11.598;2022-07-23T12:41:07;21.40;51.70
4406;DHT22;2216;53.806;11.598;2022-07-23T12:43:37;21.40;51.80
4406;DHT22;2216;53.806;11.598;2022-07-23T12:46:12;21.40;51.70
4406;DHT22;2216;53.806;11.598;2022-07-23T12:48:51;21.40;51.80
4406;DHT22;2216;53.806;11.598;2022-07-23T12:53:47;21.40;51.90
4406;DHT22;2216;53.806;11.598;2022-07-23T12:56:34;21.50;52.10
4406;DHT22;2216;53.806;11.598;2022-07-23T13:01:40;21.60;52.10
4406;DHT22;2216;53.806;11.598;2022-07-23T13:09:17;21.80;51.80
4406;DHT22;2216;53.806;11.598;2022-07-23T13:11:46;21.80;51.70
4406;DHT22;2216;53.806;11.598;2022-07-23T13:14:13;21.80;51.70
4406;DHT22;2216;53.806;11.598;2022-07-23T13:16:40;21.80;51.70
4406;DHT22;2216;53.806;11.598;2022-07-23T13:19:08;21.90;51.90
4406;DHT22;2216;53.806;11.598;2022-07-23T13:21:34;22.00;52.00
4406;DHT22;2216;53.806;11.598;2022-07-23T13:23:59;22.10;52.10
4406;DHT22;2216;53.806;11.598;2022-07-23T13:26:26;22.20;52.00
4406;DHT22;2216;53.806;11.598;2022-07-23T13:28:52;22.30;52.00
4406;DHT22;2216;53.806;11.598;2022-07-23T13:31:19;22.40;52.00
4406;DHT22;2216;53.806;11.598;2022-07-23T13:33:45;22.50;52.10
4406;DHT22;2216;53.806;11.598;2022-07-23T13:36:11;22.60;52.10
4406;DHT22;2216;53.806;11.598;2022-07-23T13:38:37;22.80;52.00
4406;DHT22;2216;53.806;11.598;2022-07-23T13:41:04;22.80;51.80
4406;DHT22;2216;53.806;11.598;2022-07-23T13:43:29;22.90;51.80
4406;DHT22;2216;53.806;11.598;2022-07-23T13:45:55;23.00;51.60
4406;DHT22;2216;53.806;11.598;2022-07-23T13:48:21;23.00;51.50
4406;DHT22;2216;53.806;11.598;2022-07-23T13:50:48;23.00;51.40
4406;DHT22;2216;53.806;11.598;2022-07-23T13:53:16;23.00;51.30
4406;DHT22;2216;53.806;11.598;2022-07-23T13:55:44;23.10;51.40
4406;DHT22;2216;53.806;11.598;2022-07-23T13:58:10;23.10;51.20
4406;DHT22;2216;53.806;11.598;2022-07-23T14:00:39;23.10;51.20
4406;DHT22;2216;53.806;11.598;2022-07-23T14:03:06;23.10;51.20
4406;DHT22;2216;53.806;11.598;2022-07-23T14:05:33;23.10;51.20
4406;DHT22;2216;53.806;11.598;2022-07-23T14:07:58;23.10;51.10
4406;DHT22;2216;53.806;11.598;2022-07-23T14:10:24;23.10;51.20
4406;DHT22;2216;53.806;11.598;2022-07-23T14:12:51;23.00;51.10
4406;DHT22;2216;53.806;11.598;2022-07-23T14:15:23;23.00;50.90
4406;DHT22;2216;53.806;11.598;2022-07-23T14:17:52;23.00;50.80
4406;DHT22;2216;53.806;11.598;2022-07-23T14:20:18;23.00;51.70
4406;DHT22;2216;53.806;11.598;2022-07-23T14:22:44;23.00;51.10
4406;DHT22;2216;53.806;11.598;2022-07-23T14:25:10;22.90;51.00
4406;DHT22;2216;53.806;11.598;2022-07-23T14:27:37;22.90;51.00
4406;DHT22;2216;53.806;11.598;2022-07-23T14:30:07;22.90;50.90
4406;DHT22;2216;53.806;11.598;2022-07-23T14:32:34;22.90;50.80
4406;DHT22;2216;53.806;11.598;2022-07-23T14:35:00;22.80;50.70
4406;DHT22;2216;53.806;11.598;2022-07-23T14:37:26;22.70;50.60
4406;DHT22;2216;53.806;11.598;2022-07-23T14:39:52;22.50;50.50
4406;DHT22;2216;53.806;11.598;2022-07-23T14:42:18;22.50;50.70
4406;DHT22;2216;53.806;11.598;2022-07-23T14:44:44;22.40;50.70
4406;DHT22;2216;53.806;11.598;2022-07-23T14:47:10;22.30;50.80
4406;DHT22;2216;53.806;11.598;2022-07-23T14:49:36;22.20;50.80
4406;DHT22;2216;53.806;11.598;2022-07-23T14:52:03;22.20;51.00
4406;DHT22;2216;53.806;11.598;2022-07-23T14:54:30;22.20;51.10
4406;DHT22;2216;53.806;11.598;2022-07-23T14:56:57;22.30;51.20
4406;DHT22;2216;53.806;11.598;2022-07-23T14:59:23;22.30;51.30
4406;DHT22;2216;53.806;11.598;2022-07-23T15:01:49;22.40;51.10
4406;DHT22;2216;53.806;11.598;2022-07-23T15:04:15;22.40;51.20
4406;DHT22;2216;53.806;11.598;2022-07-23T15:06:41;22.50;51.10
4406;DHT22;2216;53.806;11.598;2022-07-23T15:09:07;22.50;51.20
4406;DHT22;2216;53.806;11.598;2022-07-23T15:11:33;22.60;51.30
4406;DHT22;2216;53.806;11.598;2022-07-23T15:14:06;22.60;51.50
4406;DHT22;2216;53.806;11.598;2022-07-23T15:16:33;22.70;51.00
4406;DHT22;2216;53.806;11.598;2022-07-23T15:18:59;22.70;51.00
4406;DHT22;2216;53.806;11.598;2022-07-23T15:21:25;22.80;50.90
4406;DHT22;2216;53.806;11.598;2022-07-23T15:23:50;22.80;50.90
4406;DHT22;2216;53.806;11.598;2022-07-23T15:26:17;22.90;50.90
4406;DHT22;2216;53.806;11.598;2022-07-23T15:28:43;22.90;50.70
4406;DHT22;2216;53.806;11.598;2022-07-23T15:31:09;22.80;50.70
4406;DHT22;2216;53.806;11.598;2022-07-23T15:33:35;22.80;50.60
4406;DHT22;2216;53.806;11.598;2022-07-23T15:36:01;22.80;50.60
4406;DHT22;2216;53.806;11.598;2022-07-23T15:38:27;22.80;50.60
4406;DHT22;2216;53.806;11.598;2022-07-23T15:40:54;22.70;50.60
4406;DHT22;2216;53.806;11.598;2022-07-23T15:43:24;22.70;50.60
4406;DHT22;2216;53.806;11.598;2022-07-23T15:45:51;22.70;50.60
4406;DHT22;2216;53.806;11.598;2022-07-23T15:48:18;22.70;50.70
4406;DHT22;2216;53.806;11.598;2022-07-23T15:50:46;22.70;50.70
4406;DHT22;2216;53.806;11.598;2022-07-23T15:53:13;22.70;50.50
4406;DHT22;2216;53.806;11.598;2022-07-23T15:55:39;22.60;50.50
4406;DHT22;2216;53.806;11.598;2022-07-23T15:58:05;22.50;50.40
4406;DHT22;2216;53.806;11.598;2022-07-23T16:00:32;22.50;50.30
4406;DHT22;2216;53.806;11.598;2022-07-23T16:02:58;22.40;50.30
4406;DHT22;2216;53.806;11.598;2022-07-23T16:05:24;22.30;50.20
4406;DHT22;2216;53.806;11.598;2022-07-23T16:07:50;22.20;50.20
4406;DHT22;2216;53.806;11.598;2022-07-23T16:10:15;22.00;50.10
4406;DHT22;2216;53.806;11.598;2022-07-23T16:12:41;21.90;50.10
4406;DHT22;2216;53.806;11.598;2022-07-23T16:15:08;21.80;50.10
4406;DHT22;2216;53.806;11.598;2022-07-23T16:17:34;21.70;50.20
4406;DHT22;2216;53.806;11.598;2022-07-23T16:20:00;21.60;50.30
4406;DHT22;2216;53.806;11.598;2022-07-23T16:22:26;21.40;50.20
4406;DHT22;2216;53.806;11.598;2022-07-23T16:24:51;21.40;50.40
4406;DHT22;2216;53.806;11.598;2022-07-23T16:27:17;21.30;50.40
4406;DHT22;2216;53.806;11.598;2022-07-23T16:29:43;21.20;50.40
4406;DHT22;2216;53.806;11.598;2022-07-23T16:32:08;21.10;50.50
4406;DHT22;2216;53.806;11.598;2022-07-23T16:34:34;21.00;50.60
4406;DHT22;2216;53.806;11.598;2022-07-23T16:37:00;20.90;50.60
4406;DHT22;2216;53.806;11.598;2022-07-23T16:39:25;20.80;50.60
4406;DHT22;2216;53.806;11.598;2022-07-23T16:41:51;20.80;50.70
4406;DHT22;2216;53.806;11.598;2022-07-23T16:44:17;20.70;50.70